Time;durP1;ratioP1;P1;durP2;ratioP2;P2;SDS_P1;SDS_P2;PMS_P1;PMS_P2;Temp;Humidity;BMP_temperature;BMP_pressure;BME280_temperature;BME280_humidity;BME280_pressure;Samples;Min_cycle;Max_cycle;Signal;HPM_P1;HPM_P2
2021/04/22 00:00:41;;;;;;;13.88;8.73;;;11.90;60.10;;;;;;5035616;28;20116;-67
2021/04/22 00:03:07;;;;;;;14.05;10.13;;;11.90;60.30;;;;;;5035978;28;20500;-68
2021/04/22 00:05:36;;;;;;;12.10;9.07;;;11.90;60.40;;;;;;5034094;28;20167;-68
2021/04/22 00:08:07;;;;;;;12.80;9.35;;;11.90;60.40;;;;;;5035739;28;20075;-68
2021/04/22 00:10:41;;;;;;;13.10;9.13;;;11.80;60.40;;;;;;5035453;28;20025;-68
2021/04/22 00:13:07;;;;;;;13.05;9.52;;;11.80;60.40;;;;;;5035752;28;20048;-69
2021/04/22 00:15:32;;;;;;;14.05;9.70;;;11.80;60.30;;;;;;5035062;28;20025;-69
2021/04/22 00:17:59;;;;;;;12.82;8.93;;;11.80;60.10;;;;;;5035363;28;20028;-68
2021/04/22 00:20:26;;;;;;;12.23;8.77;;;11.70;60.30;;;;;;5051309;28;20025;-69
2021/04/22 00:22:52;;;;;;;13.45;8.57;;;11.60;60.20;;;;;;5035433;28;20082;-68
2021/04/22 00:25:18;;;;;;;12.65;8.25;;;11.60;60.20;;;;;;5034285;28;20059;-68
2021/04/22 00:27:44;;;;;;;10.82;8.02;;;11.50;60.20;;;;;;5035387;28;20055;-68
2021/04/22 00:30:12;;;;;;;10.88;7.95;;;11.50;60.30;;;;;;5034576;28;20481;-68
2021/04/22 00:32:40;;;;;;;13.15;7.97;;;11.40;60.30;;;;;;5034979;28;20025;-68
2021/04/22 00:35:08;;;;;;;10.90;8.50;;;11.40;60.40;;;;;;5034546;28;20135;-68
2021/04/22 00:37:34;;;;;;;10.73;7.68;;;11.40;60.30;;;;;;5035026;28;20021;-69
2021/04/22 00:40:00;;;;;;;12.38;7.97;;;11.40;60.30;;;;;;5027325;28;20397;-67
2021/04/22 00:42:25;;;;;;;12.90;8.38;;;11.30;60.30;;;;;;5015012;28;20040;-69
2021/04/22 00:44:51;;;;;;;13.13;8.00;;;11.30;60.30;;;;;;5020634;28;20039;-68
2021/04/22 00:47:18;;;;;;;10.80;7.55;;;11.20;60.30;;;;;;5035149;28;20040;-68
2021/04/22 00:49:44;;;;;;;12.23;8.32;;;11.20;60.40;;;;;;5034623;28;20056;-69
2021/04/22 00:52:11;;;;;;;10.45;7.95;;;11.20;60.40;;;;;;5034799;28;20025;-68
2021/04/22 00:54:40;;;;;;;10.43;8.05;;;11.10;60.40;;;;;;5033858;28;20414;-68
2021/04/22 00:57:07;;;;;;;10.70;7.97;;;11.10;60.40;;;;;;5034469;28;20025;-69
2021/04/22 00:59:33;;;;;;;12.25;7.93;;;11.10;60.40;;;;;;5034828;28;20025;-68
2021/04/22 01:02:00;;;;;;;9.60;7.15;;;11.00;60.50;;;;;;5034159;28;20032;-68
2021/04/22 01:04:25;;;;;;;10.52;7.68;;;11.00;60.50;;;;;;5033878;28;20056;-67
2021/04/22 01:06:51;;;;;;;10.52;7.82;;;10.90;60.60;;;;;;5034586;28;20029;-68
2021/04/22 01:09:17;;;;;;;11.30;7.00;;;10.90;60.50;;;;;;5034466;28;20033;-68
2021/04/22 01:11:43;;;;;;;10.63;7.40;;;10.90;60.50;;;;;;5034411;28;20470;-68
2021/04/22 01:14:09;;;;;;;9.90;6.70;;;10.90;60.50;;;;;;5033402;28;20040;-68
2021/04/22 01:16:34;;;;;;;9.63;7.03;;;10.80;60.60;;;;;;5033436;28;20037;-68
2021/04/22 01:19:00;;;;;;;12.27;7.82;;;10.70;60.80;;;;;;5034090;28;20139;-67
2021/04/22 01:21:27;;;;;;;14.75;9.13;;;10.70;60.80;;;;;;5034094;28;20013;-67
2021/04/22 01:23:53;;;;;;;13.15;9.00;;;10.60;60.90;;;;;;5031957;28;20112;-70
2021/04/22 01:26:25;;;;;;;13.93;9.57;;;10.50;61.20;;;;;;5032067;28;20017;-69
2021/04/22 01:28:52;;;;;;;14.20;8.93;;;10.40;61.70;;;;;;5034133;28;20481;-68
2021/04/22 01:31:18;;;;;;;12.35;8.70;;;10.40;61.50;;;;;;5034152;28;20029;-68
2021/04/22 01:33:44;;;;;;;13.88;9.27;;;10.30;61.60;;;;;;5033990;28;20135;-68
2021/04/22 01:36:10;;;;;;;12.15;9.13;;;10.30;61.70;;;;;;5033363;28;20450;-71
2021/04/22 01:38:37;;;;;;;16.25;9.38;;;10.30;61.80;;;;;;5033885;28;20055;-68
2021/04/22 01:41:03;;;;;;;12.68;8.80;;;10.20;61.90;;;;;;5033291;28;20048;-68
2021/04/22 01:43:31;;;;;;;14.32;9.48;;;10.10;61.70;;;;;;5033805;28;20025;-69
2021/04/22 01:45:57;;;;;;;16.85;10.15;;;9.80;61.80;;;;;;5033316;28;20033;-67
2021/04/22 01:48:24;;;;;;;13.10;9.15;;;9.60;62.20;;;;;;5033942;28;20032;-70
2021/04/22 01:50:50;;;;;;;13.55;9.18;;;9.60;62.60;;;;;;5051627;28;20051;-68
2021/04/22 01:53:16;;;;;;;14.48;9.73;;;9.50;62.90;;;;;;5033551;28;20409;-68
2021/04/22 01:55:47;;;;;;;14.88;9.60;;;9.50;62.90;;;;;;5050037;28;20032;-68
2021/04/22 01:58:21;;;;;;;13.70;9.05;;;9.60;63.10;;;;;;5033457;28;20025;-68
2021/04/22 02:00:58;;;;;;;15.00;9.52;;;9.60;62.90;;;;;;5034048;28;20075;-68
2021/04/22 02:03:26;;;;;;;15.10;9.80;;;9.70;62.70;;;;;;5033304;28;20025;-70
2021/04/22 02:05:52;;;;;;;14.57;9.23;;;9.70;62.60;;;;;;5031459;28;20033;-68
2021/04/22 02:08:18;;;;;;;12.23;9.13;;;9.70;62.60;;;;;;5025754;28;20032;-68
2021/04/22 02:10:44;;;;;;;14.02;8.80;;;9.70;62.60;;;;;;5013510;28;20428;-68
2021/04/22 02:13:12;;;;;;;11.77;8.80;;;9.70;62.60;;;;;;5029298;28;20021;-69
2021/04/22 02:15:39;;;;;;;12.85;9.70;;;9.70;62.60;;;;;;5033057;28;20029;-69
2021/04/22 02:18:05;;;;;;;14.32;9.65;;;9.70;62.40;;;;;;5033124;28;20021;-68
2021/04/22 02:20:31;;;;;;;16.40;10.15;;;9.70;62.50;;;;;;5033512;28;20025;-69
2021/04/22 02:22:57;;;;;;;16.33;9.07;;;9.60;62.50;;;;;;5033311;28;20024;-68
2021/04/22 02:25:24;;;;;;;14.93;9.95;;;9.60;62.70;;;;;;5057719;23;20091;-67
2021/04/22 02:27:51;;;;;;;15.20;9.90;;;9.60;62.80;;;;;;5044981;28;20503;-67
2021/04/22 02:30:18;;;;;;;16.10;9.23;;;9.60;62.80;;;;;;5012511;28;20109;-68
2021/04/22 02:32:44;;;;;;;17.27;10.10;;;9.60;62.80;;;;;;5007718;28;20105;-67
2021/04/22 02:35:12;;;;;;;14.30;9.93;;;9.50;62.70;;;;;;5010237;28;20030;-67
2021/04/22 02:37:39;;;;;;;14.02;9.95;;;9.50;62.80;;;;;;5013232;28;20021;-68
2021/04/22 02:40:10;;;;;;;14.98;10.02;;;9.50;62.70;;;;;;5013350;28;20036;-71
2021/04/22 02:42:36;;;;;;;14.90;9.85;;;9.50;62.80;;;;;;5011029;28;20033;-68
2021/04/22 02:45:06;;;;;;;16.23;10.05;;;9.50;62.90;;;;;;5012361;28;20120;-69
2021/04/22 02:47:32;;;;;;;16.17;10.27;;;9.40;63.10;;;;;;5013062;28;20116;-67
2021/04/22 02:49:58;;;;;;;16.10;10.32;;;9.40;63.10;;;;;;5013385;28;20120;-68
2021/04/22 02:52:23;;;;;;;16.90;10.88;;;9.30;63.20;;;;;;5013130;28;20135;-68
2021/04/22 02:54:49;;;;;;;17.67;10.63;;;9.30;63.30;;;;;;5012579;28;20056;-71
2021/04/22 02:57:15;;;;;;;16.55;10.90;;;9.30;63.40;;;;;;5013176;28;20025;-67
2021/04/22 02:59:40;;;;;;;15.32;10.00;;;9.30;63.50;;;;;;5013340;28;20034;-67
2021/04/22 03:02:06;;;;;;;16.13;11.43;;;9.30;63.60;;;;;;5008060;28;20033;-68
2021/04/22 03:04:32;;;;;;;19.00;11.25;;;9.30;63.70;;;;;;5005028;28;20103;-69
2021/04/22 03:06:57;;;;;;;14.63;10.40;;;9.30;63.70;;;;;;5008884;28;20527;-67
2021/04/22 03:09:23;;;;;;;17.30;11.13;;;9.20;63.70;;;;;;5013494;28;20022;-67
2021/04/22 03:11:48;;;;;;;17.10;11.75;;;9.20;63.80;;;;;;5013457;28;20599;-68
2021/04/22 03:14:14;;;;;;;16.45;11.10;;;9.20;64.00;;;;;;5012490;28;20531;-69
2021/04/22 03:16:40;;;;;;;15.63;10.82;;;9.20;64.00;;;;;;5013758;28;20034;-69
2021/04/22 03:19:05;;;;;;;17.35;11.93;;;9.20;64.10;;;;;;5013700;28;20059;-68
2021/04/22 03:21:31;;;;;;;19.17;11.77;;;9.20;64.20;;;;;;5012976;28;20018;-68
2021/04/22 03:23:57;;;;;;;16.83;12.07;;;9.20;64.20;;;;;;5012298;28;20026;-68
2021/04/22 03:26:22;;;;;;;17.63;11.57;;;9.20;64.30;;;;;;5012619;28;20073;-69
2021/04/22 03:28:48;;;;;;;17.02;11.55;;;9.10;64.30;;;;;;5013105;28;20112;-69
2021/04/22 03:31:14;;;;;;;20.00;12.40;;;9.10;64.40;;;;;;5005887;28;20026;-68
2021/04/22 03:33:39;;;;;;;22.08;12.27;;;9.10;64.60;;;;;;5008432;28;20014;-68
2021/04/22 03:36:06;;;;;;;19.15;12.57;;;9.10;64.70;;;;;;5010748;28;20053;-69
2021/04/22 03:38:31;;;;;;;20.95;12.93;;;9.20;64.80;;;;;;5013024;28;20025;-68
2021/04/22 03:40:57;;;;;;;23.50;12.45;;;9.20;64.80;;;;;;5015542;28;20439;-68
2021/04/22 03:43:22;;;;;;;20.77;12.60;;;9.20;64.80;;;;;;5016608;28;20025;-71
2021/04/22 03:45:48;;;;;;;19.50;12.90;;;9.20;64.80;;;;;;5016186;28;20030;-68
2021/04/22 03:48:14;;;;;;;19.67;12.75;;;9.20;64.80;;;;;;5034669;28;20047;-71
2021/04/22 03:50:39;;;;;;;22.45;12.93;;;9.20;65.00;;;;;;5016574;28;20382;-68
2021/04/22 03:53:05;;;;;;;20.50;13.35;;;9.20;65.00;;;;;;5016662;28;20025;-69
2021/04/22 03:55:31;;;;;;;23.65;13.50;;;9.20;65.00;;;;;;5015378;28;20036;-70
2021/04/22 03:57:56;;;;;;;23.98;14.77;;;9.20;65.60;;;;;;5016248;28;20524;-68
2021/04/22 04:00:23;;;;;;;22.40;13.95;;;9.20;65.10;;;;;;5015775;28;20031;-68
2021/04/22 04:02:50;;;;;;;22.13;14.45;;;9.20;65.10;;;;;;5004978;28;20076;-68
2021/04/22 04:05:15;;;;;;;23.20;13.90;;;9.20;65.10;;;;;;5010961;28;20026;-70
2021/04/22 04:07:41;;;;;;;25.67;14.52;;;9.20;65.20;;;;;;5007652;28;20029;-70
2021/04/22 04:10:09;;;;;;;25.30;14.38;;;9.20;65.40;;;;;;5015966;28;20029;-67
2021/04/22 04:12:35;;;;;;;22.35;14.52;;;9.30;65.50;;;;;;5016071;28;20025;-68
2021/04/22 04:15:01;;;;;;;24.95;15.68;;;9.30;65.50;;;;;;5015178;28;20025;-68
2021/04/22 04:17:27;;;;;;;23.55;15.65;;;9.30;65.40;;;;;;5015595;28;20519;-68
2021/04/22 04:19:53;;;;;;;23.60;15.43;;;9.30;65.40;;;;;;5015881;28;20029;-68
2021/04/22 04:22:18;;;;;;;24.77;16.58;;;9.30;65.40;;;;;;5015453;28;20496;-69
2021/04/22 04:24:44;;;;;;;26.17;15.55;;;9.20;65.50;;;;;;5014616;28;20043;-68
2021/04/22 04:27:10;;;;;;;25.77;15.65;;;9.20;65.50;;;;;;5015401;28;20060;-71
2021/04/22 04:29:35;;;;;;;25.73;15.90;;;9.20;65.60;;;;;;5015351;28;20025;-68
2021/04/22 04:32:01;;;;;;;25.27;15.77;;;9.10;65.60;;;;;;5011592;28;20026;-68
2021/04/22 04:34:27;;;;;;;26.75;16.45;;;9.10;65.80;;;;;;5003538;28;20410;-69
2021/04/22 04:36:52;;;;;;;26.42;16.33;;;9.10;65.80;;;;;;5000851;28;20032;-69
2021/04/22 04:39:18;;;;;;;28.67;17.15;;;9.10;65.90;;;;;;5011813;28;20061;-72
2021/04/22 04:41:44;;;;;;;25.70;16.52;;;9.00;65.90;;;;;;5009481;28;20036;-69
2021/04/22 04:44:10;;;;;;;32.50;18.17;;;9.00;66.10;;;;;;5014481;28;20428;-68
2021/04/22 04:46:36;;;;;;;26.33;17.17;;;9.00;66.20;;;;;;5014964;28;20029;-68
2021/04/22 04:49:03;;;;;;;26.92;17.23;;;8.90;66.30;;;;;;5014810;28;20129;-68
2021/04/22 04:51:29;;;;;;;27.65;17.08;;;8.90;66.40;;;;;;5014051;28;20018;-67
2021/04/22 04:53:55;;;;;;;28.85;17.73;;;8.90;66.50;;;;;;5014119;28;20033;-67
2021/04/22 04:56:20;;;;;;;26.50;17.35;;;8.90;66.60;;;;;;5014664;28;20900;-67
2021/04/22 04:58:47;;;;;;;28.65;17.88;;;8.90;66.60;;;;;;5032474;28;20060;-68
2021/04/22 05:01:13;;;;;;;29.77;18.48;;;8.90;66.70;;;;;;5007036;28;20030;-68
2021/04/22 05:03:39;;;;;;;28.98;18.20;;;8.90;66.70;;;;;;5009799;28;20390;-68
2021/04/22 05:06:05;;;;;;;29.85;17.33;;;8.90;66.80;;;;;;5010461;28;20113;-68
2021/04/22 05:08:31;;;;;;;29.30;17.70;;;9.00;66.90;;;;;;5020772;28;20076;-68
2021/04/22 05:10:57;;;;;;;26.23;17.10;;;9.00;67.00;;;;;;5009570;28;20091;-69
2021/04/22 05:13:22;;;;;;;28.42;17.73;;;8.90;67.00;;;;;;5014747;28;20033;-67
2021/04/22 05:15:48;;;;;;;24.38;16.05;;;9.00;67.10;;;;;;5013968;28;20458;-68
2021/04/22 05:18:14;;;;;;;29.45;17.85;;;9.00;67.20;;;;;;5014979;28;20036;-68
2021/04/22 05:20:39;;;;;;;27.55;16.60;;;9.00;67.20;;;;;;5014438;28;20022;-67
2021/04/22 05:23:05;;;;;;;27.83;16.35;;;9.10;67.30;;;;;;5014703;28;20026;-67
2021/04/22 05:25:30;;;;;;;26.60;16.13;;;9.10;67.20;;;;;;5005459;28;20091;-67
2021/04/22 05:27:56;;;;;;;25.33;15.85;;;9.10;67.20;;;;;;5014460;28;20041;-68
2021/04/22 05:30:23;;;;;;;25.38;16.05;;;9.20;67.30;;;;;;5014757;28;20076;-69
2021/04/22 05:32:48;;;;;;;31.38;15.63;;;9.20;67.30;;;;;;5014227;28;20025;-68
2021/04/22 05:35:16;;;;;;;22.95;15.10;;;9.20;67.40;;;;;;5006678;28;20446;-69
2021/04/22 05:37:42;;;;;;;34.63;15.55;;;9.30;67.40;;;;;;5014175;28;20455;-67
2021/04/22 05:40:08;;;;;;;28.80;14.85;;;9.30;67.40;;;;;;5014567;28;20025;-68
2021/04/22 05:42:34;;;;;;;26.80;14.35;;;9.40;67.40;;;;;;5014328;28;20087;-68
2021/04/22 05:45:00;;;;;;;25.15;13.68;;;9.40;67.40;;;;;;5014070;28;20033;-68
2021/04/22 05:47:25;;;;;;;24.25;13.38;;;9.40;67.30;;;;;;5014496;28;20021;-68
2021/04/22 05:49:51;;;;;;;18.95;12.57;;;9.50;67.50;;;;;;5014455;28;20052;-68
2021/04/22 05:52:17;;;;;;;23.83;13.13;;;9.50;67.50;;;;;;5013924;28;20064;-69
2021/04/22 05:54:43;;;;;;;19.65;12.20;;;9.60;67.50;;;;;;5013206;28;20049;-69
2021/04/22 05:57:08;;;;;;;20.38;12.52;;;9.60;67.50;;;;;;5014132;28;20029;-69
2021/04/22 05:59:34;;;;;;;18.67;11.55;;;9.60;67.40;;;;;;5014144;28;20099;-70
2021/04/22 06:02:00;;;;;;;21.73;12.20;;;9.60;67.40;;;;;;5013762;28;20120;-70
2021/04/22 06:04:26;;;;;;;17.50;11.65;;;9.70;67.50;;;;;;5001751;28;20056;-69
2021/04/22 06:06:52;;;;;;;23.55;11.93;;;9.70;67.50;;;;;;5013040;28;20536;-69
2021/04/22 06:09:17;;;;;;;21.58;11.48;;;9.70;67.50;;;;;;5003469;28;20124;-69
2021/04/22 06:11:43;;;;;;;22.25;11.57;;;9.70;67.50;;;;;;5012330;28;20037;-68
2021/04/22 06:14:09;;;;;;;18.65;10.93;;;9.70;67.40;;;;;;5009706;28;20026;-69
2021/04/22 06:16:34;;;;;;;20.17;10.35;;;9.70;67.90;;;;;;5013203;28;20501;-69
2021/04/22 06:19:00;;;;;;;17.70;10.10;;;9.70;67.30;;;;;;5014081;28;20037;-69
2021/04/22 06:21:26;;;;;;;16.88;10.00;;;9.60;67.20;;;;;;5013346;28;20394;-68
2021/04/22 06:23:52;;;;;;;22.25;10.93;;;9.60;67.20;;;;;;5013320;28;20029;-69
2021/04/22 06:26:19;;;;;;;24.17;10.93;;;9.60;67.40;;;;;;5011029;28;20805;-69
2021/04/22 06:28:45;;;;;;;16.77;9.77;;;9.60;67.60;;;;;;5013402;28;20048;-69
2021/04/22 06:31:10;;;;;;;18.13;9.63;;;9.60;67.50;;;;;;5012514;28;20034;-69
2021/04/22 06:33:36;;;;;;;13.93;6.93;;;9.50;67.30;;;;;;5012998;28;20025;-69
2021/04/22 06:36:05;;;;;;;12.10;6.03;;;9.50;66.80;;;;;;5013127;28;20028;-70
2021/04/22 06:38:31;;;;;;;12.00;5.65;;;9.40;66.70;;;;;;5013030;28;20504;-69
2021/04/22 06:40:56;;;;;;;9.52;5.57;;;9.30;66.40;;;;;;5003932;28;20124;-69
2021/04/22 06:43:22;;;;;;;15.70;5.68;;;9.30;66.30;;;;;;5013537;28;20036;-69
2021/04/22 06:45:48;;;;;;;14.98;5.40;;;9.10;66.10;;;;;;5012509;28;20124;-69
2021/04/22 06:48:15;;;;;;;10.25;5.20;;;9.10;66.10;;;;;;5013239;28;20076;-70
2021/04/22 06:50:41;;;;;;;10.10;5.10;;;9.00;66.20;;;;;;5012905;28;20064;-68
2021/04/22 06:53:07;;;;;;;12.68;5.05;;;9.00;66.40;;;;;;5014442;28;20496;-69
2021/04/22 06:55:33;;;;;;;11.95;4.90;;;9.10;66.10;;;;;;5004156;28;20040;-69
2021/04/22 06:58:01;;;;;;;18.65;4.75;;;9.10;65.90;;;;;;5004722;28;20025;-70
2021/04/22 07:00:30;;;;;;;13.07;5.43;;;9.20;65.70;;;;;;4998822;28;20477;-69
2021/04/22 07:02:56;;;;;;;10.75;5.60;;;9.30;65.70;;;;;;5012424;28;20029;-70
2021/04/22 07:05:22;;;;;;;9.57;5.00;;;9.40;65.60;;;;;;5011911;28;20025;-69
2021/04/22 07:07:47;;;;;;;9.50;5.18;;;9.40;65.30;;;;;;5012968;28;20374;-68
2021/04/22 07:10:14;;;;;;;13.70;4.93;;;9.50;65.20;;;;;;5012835;28;20029;-69
2021/04/22 07:12:40;;;;;;;9.55;4.80;;;9.60;65.10;;;;;;5012844;28;20238;-69
2021/04/22 07:15:08;;;;;;;13.98;5.28;;;9.80;64.80;;;;;;5013157;28;20112;-70
2021/04/22 07:17:35;;;;;;;9.65;4.65;;;10.10;64.60;;;;;;5017077;28;20025;-69
2021/04/22 07:20:01;;;;;;;9.93;4.78;;;10.40;63.90;;;;;;5014690;28;20232;-70
2021/04/22 07:22:26;;;;;;;10.30;5.35;;;10.50;63.70;;;;;;5015969;28;20155;-69
2021/04/22 07:24:55;;;;;;;9.15;5.28;;;10.50;63.50;;;;;;5015984;28;20072;-69
2021/04/22 07:27:21;;;;;;;10.52;5.57;;;10.60;63.70;;;;;;5015862;28;20029;-69
2021/04/22 07:29:48;;;;;;;14.10;5.07;;;10.70;63.80;;;;;;5016606;28;20026;-69
2021/04/22 07:32:19;;;;;;;10.50;5.10;;;10.90;63.50;;;;;;5014980;28;20024;-69
2021/04/22 07:34:46;;;;;;;14.95;5.10;;;10.90;63.30;;;;;;5015575;28;20437;-69
2021/04/22 07:37:12;;;;;;;11.43;4.80;;;10.90;63.00;;;;;;5016391;28;20026;-70
2021/04/22 07:39:39;;;;;;;11.07;5.80;;;11.00;62.90;;;;;;5034309;28;20021;-70
2021/04/22 07:42:05;;;;;;;9.02;4.90;;;11.00;62.60;;;;;;5016809;28;20385;-70
2021/04/22 07:44:31;;;;;;;10.93;4.93;;;11.00;62.60;;;;;;5015373;28;20089;-70
2021/04/22 07:46:56;;;;;;;13.55;4.95;;;11.00;62.40;;;;;;5015837;28;20045;-70
2021/04/22 07:49:22;;;;;;;10.30;4.45;;;11.00;62.50;;;;;;5016462;28;20025;-70
2021/04/22 07:51:48;;;;;;;11.38;4.75;;;11.00;62.30;;;;;;5016584;28;20022;-70
2021/04/22 07:54:14;;;;;;;17.02;5.55;;;11.10;62.20;;;;;;5015818;28;20032;-70
2021/04/22 07:56:40;;;;;;;13.18;5.28;;;11.20;62.00;;;;;;5016157;28;20021;-70
2021/04/22 07:59:06;;;;;;;11.48;4.70;;;11.40;61.90;;;;;;5016515;28;20026;-68
2021/04/22 08:01:31;;;;;;;10.85;4.10;;;11.50;61.30;;;;;;5008853;28;20022;-68
2021/04/22 08:03:57;;;;;;;16.40;4.30;;;11.60;61.00;;;;;;5009099;28;20381;-69
2021/04/22 08:06:23;;;;;;;7.97;3.53;;;11.90;60.60;;;;;;5014686;28;20076;-69
2021/04/22 08:08:49;;;;;;;10.68;4.32;;;12.10;60.10;;;;;;5016452;28;20025;-72
2021/04/22 08:11:14;;;;;;;10.30;3.72;;;12.20;59.70;;;;;;5016225;28;20030;-69
2021/04/22 08:13:40;;;;;;;12.13;4.15;;;12.40;60.20;;;;;;5015873;28;20560;-69
2021/04/22 08:16:06;;;;;;;12.25;4.63;;;12.60;59.30;;;;;;5015522;28;20536;-68
2021/04/22 08:18:32;;;;;;;12.02;4.63;;;12.80;59.10;;;;;;5016059;28;20030;-68
2021/04/22 08:20:59;;;;;;;8.43;3.70;;;13.00;58.90;;;;;;5016187;28;20074;-68
2021/04/22 08:23:28;;;;;;;10.45;4.28;;;13.30;58.70;;;;;;5016102;28;20061;-68
2021/04/22 08:26:03;;;;;;;10.55;3.40;;;13.50;58.10;;;;;;5015653;28;20035;-70
2021/04/22 08:28:31;;;;;;;8.98;3.90;;;13.70;57.70;;;;;;5016181;28;20026;-68
2021/04/22 08:33:29;;;;;;;64.15;37.92;;;14.20;57.30;;;;;;5029545;28;20394;-69
2021/04/22 08:35:55;;;;;;;14.88;6.70;;;14.50;57.50;;;;;;5010554;28;20412;-68
2021/04/22 08:38:22;;;;;;;13.00;5.18;;;14.80;57.10;;;;;;5015922;28;20113;-68
2021/04/22 08:40:49;;;;;;;10.60;5.00;;;15.10;56.50;;;;;;5015664;28;20029;-69
2021/04/22 08:43:15;;;;;;;9.43;4.90;;;15.40;55.60;;;;;;5015839;28;20050;-68
2021/04/22 08:45:41;;;;;;;12.80;5.22;;;15.70;55.50;;;;;;5015585;28;20485;-68
2021/04/22 08:48:08;;;;;;;8.48;4.63;;;16.00;53.90;;;;;;5015580;28;20040;-68
2021/04/22 08:50:35;;;;;;;6.38;3.70;;;16.20;53.60;;;;;;5015150;28;20033;-69
2021/04/22 08:53:06;;;;;;;10.38;3.60;;;16.60;53.10;;;;;;5009912;28;20129;-68
2021/04/22 08:55:33;;;;;;;9.40;3.33;;;17.10;52.20;;;;;;5021344;28;20053;-67
2021/04/22 08:58:02;;;;;;;7.43;3.13;;;17.50;51.30;;;;;;5015162;28;20030;-69
2021/04/22 09:00:31;;;;;;;6.78;3.33;;;18.10;50.40;;;;;;5014046;28;20025;-69
2021/04/22 09:02:57;;;;;;;8.75;3.67;;;18.80;48.70;;;;;;5019590;28;20474;-67
2021/04/22 09:05:23;;;;;;;10.70;4.00;;;19.50;47.10;;;;;;5015960;28;20036;-69
2021/04/22 09:07:49;;;;;;;7.60;2.80;;;20.40;45.80;;;;;;5015145;28;20397;-67
2021/04/22 09:10:18;;;;;;;5.97;3.22;;;21.10;44.20;;;;;;5032584;28;20087;-70
2021/04/22 09:13:07;;;;;;;6.65;2.65;;;21.60;42.60;;;;;;5014796;28;20029;-71
2021/04/22 09:15:35;;;;;;;5.78;2.78;;;22.20;41.60;;;;;;5030113;28;20029;-68
2021/04/22 09:18:08;;;;;;;9.63;3.13;;;23.00;40.80;;;;;;5005161;28;20025;-69
2021/04/22 09:20:40;;;;;;;8.30;2.97;;;23.90;38.80;;;;;;5012187;28;20038;-68
2021/04/22 09:23:27;;;;;;;7.85;3.67;;;24.70;37.50;;;;;;5018161;28;20029;-70
2021/04/22 09:26:12;;;;;;;10.95;3.00;;;25.50;36.60;;;;;;5008877;28;20037;-68
2021/04/22 09:28:44;;;;;;;10.90;3.05;;;26.00;35.80;;;;;;5030415;28;20022;-68
2021/04/22 09:31:22;;;;;;;9.98;3.10;;;26.50;34.90;;;;;;5027577;28;20099;-68
2021/04/22 09:34:04;;;;;;;7.70;3.03;;;26.80;34.70;;;;;;5032121;28;20041;-70
2021/04/22 09:36:59;;;;;;;9.82;3.28;;;26.50;33.80;;;;;;5009680;28;20036;-69
2021/04/22 09:39:27;;;;;;;9.82;3.15;;;25.80;35.20;;;;;;4995061;28;20037;-70
2021/04/22 09:41:56;;;;;;;7.47;2.95;;;25.30;34.70;;;;;;5013667;28;20042;-69
2021/04/22 09:44:22;;;;;;;8.57;3.63;;;25.20;35.00;;;;;;5013757;28;20021;-68
2021/04/22 09:46:59;;;;;;;11.98;3.00;;;24.80;35.40;;;;;;5018620;28;20104;-69
2021/04/22 09:49:25;;;;;;;6.22;2.65;;;24.50;35.30;;;;;;5012537;28;20033;-68
2021/04/22 09:51:51;;;;;;;6.97;3.00;;;24.10;36.20;;;;;;5014074;28;20504;-68
2021/04/22 09:54:21;;;;;;;9.63;2.75;;;23.60;36.20;;;;;;5017408;28;20116;-69
2021/04/22 09:56:47;;;;;;;6.68;2.45;;;23.20;36.90;;;;;;5019125;28;20029;-69
2021/04/22 09:59:18;;;;;;;9.13;2.90;;;22.90;37.30;;;;;;5026680;28;20017;-67
2021/04/22 10:02:04;;;;;;;7.57;2.83;;;22.50;37.30;;;;;;5013601;28;20489;-68
2021/04/22 10:04:43;;;;;;;9.57;2.88;;;21.90;37.80;;;;;;5013533;28;20128;-69
2021/04/22 10:07:22;;;;;;;8.35;2.40;;;21.50;38.40;;;;;;5013384;28;20025;-69
2021/04/22 10:09:49;;;;;;;8.35;5.18;;;21.20;38.20;;;;;;5005930;28;20072;-70
2021/04/22 10:12:27;;;;;;;4.28;1.98;;;20.70;38.40;;;;;;5008835;28;20025;-67
2021/04/22 10:14:54;;;;;;;7.65;2.22;;;20.40;38.00;;;;;;5013761;28;20160;-69
2021/04/22 10:17:25;;;;;;;10.80;2.30;;;20.10;37.80;;;;;;5013217;28;20515;-68
2021/04/22 10:20:05;;;;;;;6.82;2.60;;;19.90;38.30;;;;;;5013271;28;20033;-67
2021/04/22 10:22:42;;;;;;;3.25;1.48;;;19.80;39.00;;;;;;5012973;28;20041;-66
2021/04/22 10:25:14;;;;;;;4.72;1.65;;;19.80;37.90;;;;;;5024466;28;20025;-67
2021/04/22 10:27:40;;;;;;;6.88;1.60;;;19.70;38.40;;;;;;5019633;28;20116;-67
2021/04/22 10:30:12;;;;;;;5.20;1.92;;;19.70;38.40;;;;;;5012516;28;20116;-69
2021/04/22 10:32:40;;;;;;;7.85;2.05;;;19.70;37.70;;;;;;5011632;28;20083;-70
2021/04/22 10:35:06;;;;;;;5.78;2.33;;;19.70;37.80;;;;;;5012071;28;20033;-68
2021/04/22 10:37:34;;;;;;;6.35;2.30;;;19.60;37.60;;;;;;5006567;28;20022;-67
2021/04/22 10:40:01;;;;;;;7.65;1.83;;;19.60;38.10;;;;;;5031035;28;20021;-67
2021/04/22 10:42:28;;;;;;;6.53;2.15;;;19.70;38.10;;;;;;5010287;28;20025;-65
2021/04/22 10:44:54;;;;;;;10.40;2.42;;;19.70;38.50;;;;;;5011855;28;20458;-67
2021/04/22 10:47:24;;;;;;;6.88;2.13;;;19.80;38.60;;;;;;5013552;28;20052;-66
2021/04/22 10:49:51;;;;;;;5.75;2.28;;;19.80;38.70;;;;;;5015461;28;20039;-67
2021/04/22 10:52:18;;;;;;;10.50;6.50;;;19.90;38.60;;;;;;5016297;28;20029;-68
2021/04/22 10:54:45;;;;;;;9.82;3.05;;;20.00;38.10;;;;;;5023253;28;20061;-67
2021/04/22 10:57:14;;;;;;;6.05;2.60;;;19.90;37.80;;;;;;5017565;28;20025;-67
2021/04/22 10:59:40;;;;;;;6.25;2.35;;;19.80;37.20;;;;;;5017325;28;20025;-66
2021/04/22 11:02:20;;;;;;;5.97;2.28;;;19.70;37.60;;;;;;5017391;28;20056;-67
2021/04/22 11:04:48;;;;;;;7.05;2.63;;;19.70;37.70;;;;;;5034673;28;20037;-67
2021/04/22 11:07:26;;;;;;;5.93;2.35;;;19.70;37.70;;;;;;5016761;28;20493;-67
2021/04/22 11:09:53;;;;;;;6.15;2.60;;;19.60;37.50;;;;;;5016900;28;20060;-67
2021/04/22 11:12:22;;;;;;;8.82;2.33;;;19.60;37.20;;;;;;5016709;28;20563;-67
2021/04/22 11:14:54;;;;;;;6.60;2.28;;;19.60;36.60;;;;;;5016706;28;20041;-67
2021/04/22 11:17:39;;;;;;;5.88;2.13;;;19.70;36.80;;;;;;5016033;28;20028;-67
2021/04/22 11:20:16;;;;;;;13.68;2.67;;;19.70;36.80;;;;;;5016157;28;20029;-66
2021/04/22 11:22:44;;;;;;;6.63;2.33;;;19.80;36.90;;;;;;5009524;28;20025;-66
2021/04/22 11:25:15;;;;;;;6.38;2.45;;;19.90;37.50;;;;;;5017559;28;20113;-67
2021/04/22 11:27:51;;;;;;;5.68;2.50;;;19.90;36.60;;;;;;5024069;28;20371;-67
2021/04/22 11:30:31;;;;;;;5.03;2.25;;;20.00;36.60;;;;;;5016448;28;20456;-67
2021/04/22 11:33:00;;;;;;;7.75;2.55;;;20.10;36.70;;;;;;5014166;28;20033;-67
2021/04/22 11:35:28;;;;;;;5.82;2.58;;;20.10;36.10;;;;;;5015422;28;20486;-67
2021/04/22 11:38:04;;;;;;;6.05;2.30;;;20.00;36.00;;;;;;5016849;28;20052;-67
2021/04/22 11:40:42;;;;;;;4.63;2.30;;;20.00;35.80;;;;;;5016496;28;20033;-67
2021/04/22 11:43:25;;;;;;;7.53;2.33;;;20.00;36.10;;;;;;5016381;28;20390;-67
2021/04/22 11:45:54;;;;;;;4.75;2.33;;;20.10;35.80;;;;;;5012014;28;20095;-67
2021/04/22 11:48:21;;;;;;;4.90;2.15;;;20.00;34.60;;;;;;5016790;28;20026;-67
2021/04/22 11:50:54;;;;;;;36.25;18.20;;;20.00;34.90;;;;;;5015033;28;20034;-67
2021/04/22 11:53:41;;;;;;;3.78;2.25;;;20.00;35.10;;;;;;5017982;28;20083;-67
2021/04/22 11:56:08;;;;;;;4.07;2.10;;;20.00;35.20;;;;;;5022507;28;20062;-67
2021/04/22 11:58:37;;;;;;;6.25;2.28;;;20.00;35.20;;;;;;5023743;28;20017;-67
2021/04/22 12:01:12;;;;;;;7.10;2.67;;;20.00;34.70;;;;;;5013801;28;20030;-67
2021/04/22 12:03:40;;;;;;;4.97;1.98;;;19.80;34.20;;;;;;5011249;28;20060;-67
2021/04/22 12:06:13;;;;;;;6.45;2.13;;;19.80;34.70;;;;;;5013822;28;20030;-68
2021/04/22 12:08:41;;;;;;;8.23;2.30;;;19.90;33.30;;;;;;5013978;28;20485;-68
2021/04/22 12:11:09;;;;;;;11.63;1.95;;;19.80;34.10;;;;;;5015253;28;20402;-67
2021/04/22 12:13:38;;;;;;;5.85;1.85;;;19.90;34.60;;;;;;5006336;28;20031;-69
2021/04/22 12:16:06;;;;;;;6.57;2.22;;;20.10;34.00;;;;;;5016185;28;20017;-66
2021/04/22 12:18:33;;;;;;;7.32;2.10;;;20.10;33.70;;;;;;5017610;28;20444;-67
2021/04/22 12:21:30;;;;;;;4.57;1.90;;;20.10;33.30;;;;;;5015232;28;20408;-67
2021/04/22 12:24:05;;;;;;;5.30;2.10;;;20.10;33.20;;;;;;5011908;28;20038;-67
2021/04/22 12:26:33;;;;;;;9.23;2.50;;;20.00;32.80;;;;;;5016085;28;20067;-64
2021/04/22 12:29:04;;;;;;;5.90;2.00;;;20.10;33.80;;;;;;5011134;28;20036;-67
2021/04/22 12:31:39;;;;;;;6.10;2.25;;;20.20;33.20;;;;;;5013516;28;20026;-66
2021/04/22 12:34:09;;;;;;;3.85;1.70;;;20.20;32.80;;;;;;5014229;28;20084;-67
2021/04/22 12:36:36;;;;;;;4.65;1.92;;;20.20;32.40;;;;;;5007048;28;20079;-67
2021/04/22 12:39:04;;;;;;;4.22;1.80;;;20.20;32.70;;;;;;5012906;28;20026;-67
2021/04/22 12:41:30;;;;;;;7.53;2.22;;;20.40;32.80;;;;;;5018357;28;20511;-68
2021/04/22 12:43:56;;;;;;;8.57;2.10;;;20.40;32.40;;;;;;5032704;28;20034;-68
2021/04/22 12:46:23;;;;;;;6.63;2.00;;;20.40;32.70;;;;;;5039686;28;20057;-67